sensor_id;sensor_type;location;lat;lon;timestamp;P1;durP1;ratioP1;P2;durP2;ratioP2
51122;SDS011;37162;41.724;13.346;2023-07-08T00:00:20;5.75;;;2.47;;
51122;SDS011;37162;41.724;13.346;2023-07-08T00:02:46;4.60;;;2.92;;
51122;SDS011;37162;41.724;13.346;2023-07-08T00:05:13;3.45;;;2.50;;
51122;SDS011;37162;41.724;13.346;2023-07-08T00:07:40;2.70;;;2.20;;
51122;SDS011;37162;41.724;13.346;2023-07-08T00:10:39;5.38;;;2.30;;
51122;SDS011;37162;41.724;13.346;2023-07-08T00:12:58;2.93;;;2.17;;
51122;SDS011;37162;41.724;13.346;2023-07-08T00:15:27;3.25;;;2.30;;
51122;SDS011;37162;41.724;13.346;2023-07-08T00:17:54;2.88;;;2.25;;
51122;SDS011;37162;41.724;13.346;2023-07-08T00:20:36;2.70;;;2.20;;
51122;SDS011;37162;41.724;13.346;2023-07-08T00:23:04;3.55;;;2.53;;
51122;SDS011;37162;41.724;13.346;2023-07-08T00:25:30;3.60;;;2.67;;
51122;SDS011;37162;41.724;13.346;2023-07-08T00:27:57;3.78;;;1.88;;
51122;SDS011;37162;41.724;13.346;2023-07-08T00:30:30;3.03;;;2.20;;
51122;SDS011;37162;41.724;13.346;2023-07-08T00:32:56;2.95;;;2.35;;
51122;SDS011;37162;41.724;13.346;2023-07-08T00:35:28;5.68;;;3.88;;
51122;SDS011;37162;41.724;13.346;2023-07-08T00:37:57;4.35;;;2.47;;
51122;SDS011;37162;41.724;13.346;2023-07-08T00:40:37;3.40;;;2.25;;
51122;SDS011;37162;41.724;13.346;2023-07-08T00:43:03;2.75;;;2.30;;
51122;SDS011;37162;41.724;13.346;2023-07-08T00:48:00;3.83;;;2.35;;
51122;SDS011;37162;41.724;13.346;2023-07-08T00:50:33;4.28;;;2.30;;
51122;SDS011;37162;41.724;13.346;2023-07-08T00:55:48;3.53;;;2.63;;
51122;SDS011;37162;41.724;13.346;2023-07-08T00:58:16;3.13;;;2.30;;
51122;SDS011;37162;41.724;13.346;2023-07-08T01:00:45;5.32;;;2.92;;
51122;SDS011;37162;41.724;13.346;2023-07-08T01:03:11;3.33;;;2.55;;
51122;SDS011;37162;41.724;13.346;2023-07-08T01:05:36;4.97;;;2.60;;
51122;SDS011;37162;41.724;13.346;2023-07-08T01:08:03;3.75;;;2.47;;
51122;SDS011;37162;41.724;13.346;2023-07-08T01:10:33;3.28;;;2.45;;
51122;SDS011;37162;41.724;13.346;2023-07-08T01:13:04;3.20;;;2.45;;
51122;SDS011;37162;41.724;13.346;2023-07-08T01:15:40;3.28;;;2.45;;
51122;SDS011;37162;41.724;13.346;2023-07-08T01:18:08;2.97;;;2.45;;
51122;SDS011;37162;41.724;13.346;2023-07-08T01:20:36;2.35;;;2.08;;
51122;SDS011;37162;41.724;13.346;2023-07-08T01:23:02;4.13;;;2.55;;
51122;SDS011;37162;41.724;13.346;2023-07-08T01:25:30;4.70;;;2.58;;
51122;SDS011;37162;41.724;13.346;2023-07-08T01:27:56;3.58;;;2.55;;
51122;SDS011;37162;41.724;13.346;2023-07-08T01:30:22;3.17;;;2.50;;
51122;SDS011;37162;41.724;13.346;2023-07-08T01:32:49;3.58;;;2.42;;
51122;SDS011;37162;41.724;13.346;2023-07-08T01:35:17;2.60;;;2.20;;
51122;SDS011;37162;41.724;13.346;2023-07-08T01:37:44;5.60;;;2.67;;
51122;SDS011;37162;41.724;13.346;2023-07-08T01:40:28;3.33;;;2.63;;
51122;SDS011;37162;41.724;13.346;2023-07-08T01:42:54;3.65;;;2.65;;
51122;SDS011;37162;41.724;13.346;2023-07-08T01:45:21;7.85;;;2.55;;
51122;SDS011;37162;41.724;13.346;2023-07-08T01:47:56;2.58;;;2.33;;
51122;SDS011;37162;41.724;13.346;2023-07-08T01:50:24;3.28;;;2.42;;
51122;SDS011;37162;41.724;13.346;2023-07-08T01:52:51;3.85;;;2.58;;
51122;SDS011;37162;41.724;13.346;2023-07-08T01:55:24;3.47;;;2.13;;
51122;SDS011;37162;41.724;13.346;2023-07-08T01:57:53;2.50;;;2.30;;
51122;SDS011;37162;41.724;13.346;2023-07-08T02:00:19;3.30;;;2.83;;
51122;SDS011;37162;41.724;13.346;2023-07-08T02:02:46;3.85;;;2.70;;
51122;SDS011;37162;41.724;13.346;2023-07-08T02:05:11;6.22;;;2.60;;
51122;SDS011;37162;41.724;13.346;2023-07-08T02:07:37;2.58;;;2.38;;
51122;SDS011;37162;41.724;13.346;2023-07-08T02:10:02;4.78;;;2.70;;
51122;SDS011;37162;41.724;13.346;2023-07-08T02:12:28;3.20;;;2.70;;
51122;SDS011;37162;41.724;13.346;2023-07-08T02:14:54;4.35;;;2.70;;
51122;SDS011;37162;41.724;13.346;2023-07-08T02:17:19;5.35;;;2.97;;
51122;SDS011;37162;41.724;13.346;2023-07-08T02:19:44;3.25;;;2.50;;
51122;SDS011;37162;41.724;13.346;2023-07-08T02:22:10;4.07;;;3.08;;
51122;SDS011;37162;41.724;13.346;2023-07-08T02:24:35;3.70;;;2.70;;
51122;SDS011;37162;41.724;13.346;2023-07-08T02:27:01;5.25;;;2.50;;
51122;SDS011;37162;41.724;13.346;2023-07-08T02:29:26;3.55;;;2.45;;
51122;SDS011;37162;41.724;13.346;2023-07-08T02:31:52;3.97;;;2.80;;
51122;SDS011;37162;41.724;13.346;2023-07-08T02:34:18;4.00;;;2.70;;
51122;SDS011;37162;41.724;13.346;2023-07-08T02:36:43;4.85;;;2.67;;
51122;SDS011;37162;41.724;13.346;2023-07-08T02:39:10;4.20;;;2.50;;
51122;SDS011;37162;41.724;13.346;2023-07-08T02:41:36;3.53;;;2.53;;
51122;SDS011;37162;41.724;13.346;2023-07-08T02:44:02;2.63;;;2.30;;
51122;SDS011;37162;41.724;13.346;2023-07-08T02:46:27;3.58;;;2.42;;
51122;SDS011;37162;41.724;13.346;2023-07-08T02:48:53;2.53;;;2.33;;
51122;SDS011;37162;41.724;13.346;2023-07-08T02:51:18;3.92;;;2.95;;
51122;SDS011;37162;41.724;13.346;2023-07-08T02:53:44;3.13;;;2.70;;
51122;SDS011;37162;41.724;13.346;2023-07-08T02:56:09;2.85;;;2.55;;
51122;SDS011;37162;41.724;13.346;2023-07-08T02:58:34;4.18;;;2.67;;
51122;SDS011;37162;41.724;13.346;2023-07-08T03:01:00;3.33;;;2.65;;
51122;SDS011;37162;41.724;13.346;2023-07-08T03:03:29;5.25;;;2.63;;
51122;SDS011;37162;41.724;13.346;2023-07-08T03:05:55;3.20;;;2.45;;
51122;SDS011;37162;41.724;13.346;2023-07-08T03:08:25;3.42;;;2.60;;
51122;SDS011;37162;41.724;13.346;2023-07-08T03:10:57;4.05;;;2.35;;
51122;SDS011;37162;41.724;13.346;2023-07-08T03:13:24;3.05;;;2.40;;
51122;SDS011;37162;41.724;13.346;2023-07-08T03:15:51;10.27;;;2.50;;
51122;SDS011;37162;41.724;13.346;2023-07-08T03:18:16;3.70;;;2.25;;
51122;SDS011;37162;41.724;13.346;2023-07-08T03:20:42;3.22;;;2.47;;
51122;SDS011;37162;41.724;13.346;2023-07-08T03:23:11;4.20;;;2.47;;
51122;SDS011;37162;41.724;13.346;2023-07-08T03:25:37;2.15;;;1.95;;
51122;SDS011;37162;41.724;13.346;2023-07-08T03:28:03;6.10;;;2.47;;
51122;SDS011;37162;41.724;13.346;2023-07-08T03:30:33;2.95;;;2.47;;
51122;SDS011;37162;41.724;13.346;2023-07-08T03:32:59;7.35;;;3.45;;
51122;SDS011;37162;41.724;13.346;2023-07-08T03:35:25;6.40;;;2.47;;
51122;SDS011;37162;41.724;13.346;2023-07-08T03:37:51;2.67;;;2.30;;
51122;SDS011;37162;41.724;13.346;2023-07-08T03:40:17;2.35;;;2.10;;
51122;SDS011;37162;41.724;13.346;2023-07-08T03:42:43;3.70;;;2.40;;
51122;SDS011;37162;41.724;13.346;2023-07-08T03:45:09;3.53;;;2.38;;
51122;SDS011;37162;41.724;13.346;2023-07-08T03:47:35;3.35;;;2.58;;
51122;SDS011;37162;41.724;13.346;2023-07-08T03:50:01;3.03;;;2.33;;
51122;SDS011;37162;41.724;13.346;2023-07-08T03:52:27;3.95;;;2.28;;
51122;SDS011;37162;41.724;13.346;2023-07-08T03:54:53;5.65;;;2.42;;
51122;SDS011;37162;41.724;13.346;2023-07-08T03:57:19;3.60;;;2.22;;
51122;SDS011;37162;41.724;13.346;2023-07-08T03:59:44;5.13;;;2.55;;
51122;SDS011;37162;41.724;13.346;2023-07-08T04:02:10;3.17;;;2.42;;
51122;SDS011;37162;41.724;13.346;2023-07-08T04:04:36;2.55;;;2.25;;
51122;SDS011;37162;41.724;13.346;2023-07-08T04:07:03;2.85;;;2.33;;
51122;SDS011;37162;41.724;13.346;2023-07-08T04:09:29;3.03;;;2.35;;
51122;SDS011;37162;41.724;13.346;2023-07-08T04:11:54;7.40;;;3.50;;
51122;SDS011;37162;41.724;13.346;2023-07-08T04:14:20;3.22;;;2.63;;
51122;SDS011;37162;41.724;13.346;2023-07-08T04:16:52;2.55;;;2.35;;
51122;SDS011;37162;41.724;13.346;2023-07-08T04:19:24;3.75;;;2.55;;
51122;SDS011;37162;41.724;13.346;2023-07-08T04:21:50;4.30;;;2.75;;
51122;SDS011;37162;41.724;13.346;2023-07-08T04:24:16;6.95;;;3.83;;
51122;SDS011;37162;41.724;13.346;2023-07-08T04:26:43;7.20;;;4.07;;
51122;SDS011;37162;41.724;13.346;2023-07-08T04:29:15;6.25;;;3.45;;
51122;SDS011;37162;41.724;13.346;2023-07-08T04:31:42;6.53;;;3.83;;
51122;SDS011;37162;41.724;13.346;2023-07-08T04:34:08;5.90;;;3.63;;
51122;SDS011;37162;41.724;13.346;2023-07-08T04:36:34;7.68;;;3.30;;
51122;SDS011;37162;41.724;13.346;2023-07-08T04:39:01;5.57;;;3.58;;
51122;SDS011;37162;41.724;13.346;2023-07-08T04:41:27;9.65;;;4.72;;
51122;SDS011;37162;41.724;13.346;2023-07-08T04:43:53;8.68;;;4.78;;
51122;SDS011;37162;41.724;13.346;2023-07-08T04:46:19;9.85;;;5.30;;
51122;SDS011;37162;41.724;13.346;2023-07-08T04:48:52;13.77;;;5.05;;
51122;SDS011;37162;41.724;13.346;2023-07-08T04:51:18;10.60;;;5.03;;
51122;SDS011;37162;41.724;13.346;2023-07-08T04:53:44;13.18;;;5.18;;
51122;SDS011;37162;41.724;13.346;2023-07-08T04:56:09;9.48;;;4.93;;
51122;SDS011;37162;41.724;13.346;2023-07-08T04:58:35;10.20;;;5.40;;
51122;SDS011;37162;41.724;13.346;2023-07-08T05:01:00;8.50;;;4.57;;
51122;SDS011;37162;41.724;13.346;2023-07-08T05:03:26;9.40;;;5.30;;
51122;SDS011;37162;41.724;13.346;2023-07-08T05:05:51;7.97;;;4.57;;
51122;SDS011;37162;41.724;13.346;2023-07-08T05:08:16;9.80;;;5.50;;
51122;SDS011;37162;41.724;13.346;2023-07-08T05:10:42;13.57;;;4.88;;
51122;SDS011;37162;41.724;13.346;2023-07-08T05:13:07;11.55;;;5.50;;
51122;SDS011;37162;41.724;13.346;2023-07-08T05:15:33;11.93;;;5.72;;
51122;SDS011;37162;41.724;13.346;2023-07-08T05:17:58;13.50;;;5.05;;
51122;SDS011;37162;41.724;13.346;2023-07-08T05:20:24;7.53;;;5.07;;
51122;SDS011;37162;41.724;13.346;2023-07-08T05:22:49;10.82;;;4.40;;
51122;SDS011;37162;41.724;13.346;2023-07-08T05:25:15;6.60;;;4.47;;
51122;SDS011;37162;41.724;13.346;2023-07-08T05:27:41;11.82;;;5.95;;
51122;SDS011;37162;41.724;13.346;2023-07-08T05:30:14;8.70;;;5.65;;
51122;SDS011;37162;41.724;13.346;2023-07-08T05:32:41;12.73;;;4.93;;
51122;SDS011;37162;41.724;13.346;2023-07-08T05:35:06;8.60;;;4.90;;
51122;SDS011;37162;41.724;13.346;2023-07-08T05:37:32;25.73;;;5.70;;
51122;SDS011;37162;41.724;13.346;2023-07-08T05:39:57;16.98;;;5.15;;
51122;SDS011;37162;41.724;13.346;2023-07-08T05:42:25;16.85;;;6.40;;
51122;SDS011;37162;41.724;13.346;2023-07-08T05:44:51;14.88;;;5.15;;
51122;SDS011;37162;41.724;13.346;2023-07-08T05:47:17;16.08;;;5.50;;
51122;SDS011;37162;41.724;13.346;2023-07-08T05:49:43;9.07;;;5.05;;
51122;SDS011;37162;41.724;13.346;2023-07-08T05:52:08;12.73;;;4.45;;
51122;SDS011;37162;41.724;13.346;2023-07-08T05:54:37;8.68;;;5.20;;
51122;SDS011;37162;41.724;13.346;2023-07-08T05:57:03;13.07;;;5.57;;
51122;SDS011;37162;41.724;13.346;2023-07-08T05:59:30;11.52;;;6.00;;
51122;SDS011;37162;41.724;13.346;2023-07-08T06:01:55;9.95;;;5.68;;
51122;SDS011;37162;41.724;13.346;2023-07-08T06:04:20;9.85;;;5.45;;
51122;SDS011;37162;41.724;13.346;2023-07-08T06:06:47;15.07;;;5.47;;
51122;SDS011;37162;41.724;13.346;2023-07-08T06:09:13;13.40;;;5.10;;
51122;SDS011;37162;41.724;13.346;2023-07-08T06:11:38;11.85;;;4.40;;
51122;SDS011;37162;41.724;13.346;2023-07-08T06:14:04;10.07;;;5.13;;
51122;SDS011;37162;41.724;13.346;2023-07-08T06:16:29;13.77;;;5.47;;
51122;SDS011;37162;41.724;13.346;2023-07-08T06:18:58;9.65;;;5.38;;
51122;SDS011;37162;41.724;13.346;2023-07-08T06:21:24;10.52;;;5.15;;
51122;SDS011;37162;41.724;13.346;2023-07-08T06:23:49;8.40;;;5.05;;
51122;SDS011;37162;41.724;13.346;2023-07-08T06:26:15;9.77;;;5.80;;
51122;SDS011;37162;41.724;13.346;2023-07-08T06:28:40;10.13;;;5.57;;
51122;SDS011;37162;41.724;13.346;2023-07-08T06:31:05;9.02;;;4.90;;
51122;SDS011;37162;41.724;13.346;2023-07-08T06:33:31;13.13;;;5.72;;
51122;SDS011;37162;41.724;13.346;2023-07-08T06:35:56;6.20;;;4.50;;
51122;SDS011;37162;41.724;13.346;2023-07-08T06:38:22;10.23;;;5.35;;
51122;SDS011;37162;41.724;13.346;2023-07-08T06:40:47;20.15;;;7.53;;
51122;SDS011;37162;41.724;13.346;2023-07-08T06:43:12;15.57;;;4.40;;
51122;SDS011;37162;41.724;13.346;2023-07-08T06:45:38;9.25;;;5.45;;
51122;SDS011;37162;41.724;13.346;2023-07-08T06:48:05;11.50;;;5.65;;
51122;SDS011;37162;41.724;13.346;2023-07-08T06:50:31;10.30;;;4.78;;
51122;SDS011;37162;41.724;13.346;2023-07-08T06:52:56;12.23;;;5.93;;
51122;SDS011;37162;41.724;13.346;2023-07-08T06:55:21;9.90;;;5.50;;
51122;SDS011;37162;41.724;13.346;2023-07-08T06:57:47;9.85;;;5.40;;
51122;SDS011;37162;41.724;13.346;2023-07-08T07:00:14;8.10;;;5.10;;
51122;SDS011;37162;41.724;13.346;2023-07-08T07:02:39;10.23;;;5.28;;
51122;SDS011;37162;41.724;13.346;2023-07-08T07:05:05;7.35;;;4.85;;
51122;SDS011;37162;41.724;13.346;2023-07-08T07:07:31;9.55;;;4.50;;
51122;SDS011;37162;41.724;13.346;2023-07-08T07:09:57;7.10;;;4.70;;
51122;SDS011;37162;41.724;13.346;2023-07-08T07:12:23;7.03;;;4.47;;
51122;SDS011;37162;41.724;13.346;2023-07-08T07:14:50;7.88;;;4.95;;
51122;SDS011;37162;41.724;13.346;2023-07-08T07:17:17;7.15;;;4.47;;
51122;SDS011;37162;41.724;13.346;2023-07-08T07:19:44;10.55;;;4.55;;
51122;SDS011;37162;41.724;13.346;2023-07-08T07:22:09;7.70;;;4.65;;
51122;SDS011;37162;41.724;13.346;2023-07-08T07:24:35;6.75;;;4.72;;
51122;SDS011;37162;41.724;13.346;2023-07-08T07:27:00;8.43;;;4.82;;
51122;SDS011;37162;41.724;13.346;2023-07-08T07:29:26;7.55;;;4.93;;
51122;SDS011;37162;41.724;13.346;2023-07-08T07:31:52;8.98;;;4.93;;
51122;SDS011;37162;41.724;13.346;2023-07-08T07:34:17;7.05;;;5.05;;
51122;SDS011;37162;41.724;13.346;2023-07-08T07:36:42;10.23;;;4.93;;
51122;SDS011;37162;41.724;13.346;2023-07-08T07:39:08;6.38;;;4.55;;
51122;SDS011;37162;41.724;13.346;2023-07-08T07:41:33;6.60;;;4.55;;
51122;SDS011;37162;41.724;13.346;2023-07-08T07:43:59;8.65;;;4.68;;
51122;SDS011;37162;41.724;13.346;2023-07-08T07:46:24;9.35;;;4.78;;
51122;SDS011;37162;41.724;13.346;2023-07-08T07:48:50;7.10;;;4.63;;
51122;SDS011;37162;41.724;13.346;2023-07-08T07:51:15;8.05;;;4.55;;
51122;SDS011;37162;41.724;13.346;2023-07-08T07:53:41;9.63;;;4.40;;
51122;SDS011;37162;41.724;13.346;2023-07-08T07:56:06;6.85;;;4.47;;
51122;SDS011;37162;41.724;13.346;2023-07-08T07:58:32;11.52;;;5.13;;
51122;SDS011;37162;41.724;13.346;2023-07-08T08:00:57;8.82;;;4.85;;
51122;SDS011;37162;41.724;13.346;2023-07-08T08:03:23;7.18;;;4.28;;
51122;SDS011;37162;41.724;13.346;2023-07-08T08:05:48;6.72;;;4.32;;
51122;SDS011;37162;41.724;13.346;2023-07-08T08:08:14;6.55;;;4.05;;
51122;SDS011;37162;41.724;13.346;2023-07-08T08:10:41;9.27;;;4.25;;
51122;SDS011;37162;41.724;13.346;2023-07-08T08:13:08;8.20;;;4.65;;
51122;SDS011;37162;41.724;13.346;2023-07-08T08:15:34;11.63;;;4.35;;
51122;SDS011;37162;41.724;13.346;2023-07-08T08:18:01;9.80;;;4.47;;
51122;SDS011;37162;41.724;13.346;2023-07-08T08:20:27;8.77;;;5.15;;
51122;SDS011;37162;41.724;13.346;2023-07-08T08:22:54;6.20;;;4.47;;
51122;SDS011;37162;41.724;13.346;2023-07-08T08:25:20;6.20;;;4.63;;
51122;SDS011;37162;41.724;13.346;2023-07-08T08:27:47;6.85;;;4.80;;
51122;SDS011;37162;41.724;13.346;2023-07-08T08:30:12;16.77;;;4.90;;
51122;SDS011;37162;41.724;13.346;2023-07-08T08:32:38;6.60;;;4.13;;
51122;SDS011;37162;41.724;13.346;2023-07-08T08:35:04;7.00;;;4.50;;
51122;SDS011;37162;41.724;13.346;2023-07-08T08:37:30;6.50;;;4.50;;
51122;SDS011;37162;41.724;13.346;2023-07-08T08:39:55;6.65;;;4.40;;
51122;SDS011;37162;41.724;13.346;2023-07-08T08:42:26;6.20;;;4.18;;
51122;SDS011;37162;41.724;13.346;2023-07-08T08:45:00;8.07;;;4.47;;
51122;SDS011;37162;41.724;13.346;2023-07-08T08:52:55;5.45;;;3.90;;
51122;SDS011;37162;41.724;13.346;2023-07-08T08:55:22;6.45;;;4.72;;
51122;SDS011;37162;41.724;13.346;2023-07-08T08:57:57;7.63;;;4.10;;
51122;SDS011;37162;41.724;13.346;2023-07-08T09:00:35;6.85;;;5.00;;
51122;SDS011;37162;41.724;13.346;2023-07-08T09:03:10;9.02;;;4.47;;
51122;SDS011;37162;41.724;13.346;2023-07-08T09:05:41;12.70;;;4.72;;
51122;SDS011;37162;41.724;13.346;2023-07-08T09:08:20;10.68;;;4.55;;
51122;SDS011;37162;41.724;13.346;2023-07-08T09:13:37;10.02;;;4.53;;
51122;SDS011;37162;41.724;13.346;2023-07-08T09:16:06;11.88;;;5.43;;
51122;SDS011;37162;41.724;13.346;2023-07-08T09:18:47;9.20;;;4.93;;
51122;SDS011;37162;41.724;13.346;2023-07-08T09:21:21;9.60;;;4.70;;
51122;SDS011;37162;41.724;13.346;2023-07-08T09:23:52;8.98;;;5.00;;
51122;SDS011;37162;41.724;13.346;2023-07-08T09:26:25;7.60;;;3.95;;
51122;SDS011;37162;41.724;13.346;2023-07-08T09:28:53;9.73;;;5.68;;
51122;SDS011;37162;41.724;13.346;2023-07-08T09:31:23;12.00;;;4.53;;
51122;SDS011;37162;41.724;13.346;2023-07-08T09:33:52;11.52;;;4.60;;
51122;SDS011;37162;41.724;13.346;2023-07-08T09:36:29;14.15;;;5.20;;
51122;SDS011;37162;41.724;13.346;2023-07-08T09:38:54;6.78;;;4.55;;
51122;SDS011;37162;41.724;13.346;2023-07-08T09:41:30;9.18;;;4.50;;
51122;SDS011;37162;41.724;13.346;2023-07-08T09:44:04;6.55;;;4.60;;
51122;SDS011;37162;41.724;13.346;2023-07-08T09:46:37;7.25;;;4.65;;
51122;SDS011;37162;41.724;13.346;2023-07-08T09:49:23;9.30;;;5.03;;
51122;SDS011;37162;41.724;13.346;2023-07-08T09:51:53;8.27;;;4.72;;
51122;SDS011;37162;41.724;13.346;2023-07-08T09:54:20;8.10;;;4.82;;
51122;SDS011;37162;41.724;13.346;2023-07-08T09:59:31;9.02;;;4.03;;
51122;SDS011;37162;41.724;13.346;2023-07-08T10:02:28;6.72;;;4.05;;
51122;SDS011;37162;41.724;13.346;2023-07-08T10:04:52;5.45;;;4.35;;
51122;SDS011;37162;41.724;13.346;2023-07-08T10:07:20;6.53;;;4.70;;
51122;SDS011;37162;41.724;13.346;2023-07-08T10:09:50;6.05;;;4.57;;
51122;SDS011;37162;41.724;13.346;2023-07-08T10:12:18;4.72;;;3.88;;
51122;SDS011;37162;41.724;13.346;2023-07-08T10:15:11;8.27;;;4.78;;
51122;SDS011;37162;41.724;13.346;2023-07-08T10:17:46;6.22;;;4.57;;
51122;SDS011;37162;41.724;13.346;2023-07-08T10:20:12;10.18;;;4.80;;
51122;SDS011;37162;41.724;13.346;2023-07-08T10:33:48;5.97;;;4.40;;
51122;SDS011;37162;41.724;13.346;2023-07-08T10:39:15;5.55;;;3.63;;
51122;SDS011;37162;41.724;13.346;2023-07-08T10:45:20;5.68;;;4.18;;
51122;SDS011;37162;41.724;13.346;2023-07-08T10:58:39;6.13;;;3.92;;
51122;SDS011;37162;41.724;13.346;2023-07-08T11:09:29;8.05;;;4.03;;
51122;SDS011;37162;41.724;13.346;2023-07-08T11:17:39;10.43;;;3.97;;
51122;SDS011;37162;41.724;13.346;2023-07-08T11:22:56;5.82;;;4.00;;
51122;SDS011;37162;41.724;13.346;2023-07-08T11:25:27;5.53;;;4.00;;
51122;SDS011;37162;41.724;13.346;2023-07-08T11:27:55;5.80;;;4.30;;
51122;SDS011;37162;41.724;13.346;2023-07-08T11:30:24;5.70;;;4.03;;
51122;SDS011;37162;41.724;13.346;2023-07-08T11:32:57;5.93;;;3.58;;
51122;SDS011;37162;41.724;13.346;2023-07-08T11:35:35;5.70;;;4.15;;
51122;SDS011;37162;41.724;13.346;2023-07-08T11:38:15;5.60;;;4.35;;
51122;SDS011;37162;41.724;13.346;2023-07-08T11:46:19;5.72;;;4.35;;
51122;SDS011;37162;41.724;13.346;2023-07-08T11:48:47;7.68;;;3.95;;
51122;SDS011;37162;41.724;13.346;2023-07-08T11:51:19;7.95;;;4.20;;
51122;SDS011;37162;41.724;13.346;2023-07-08T11:53:50;4.03;;;3.58;;
51122;SDS011;37162;41.724;13.346;2023-07-08T11:56:27;6.18;;;3.35;;
51122;SDS011;37162;41.724;13.346;2023-07-08T11:58:57;7.60;;;4.00;;
51122;SDS011;37162;41.724;13.346;2023-07-08T12:01:32;5.40;;;4.13;;
51122;SDS011;37162;41.724;13.346;2023-07-08T12:09:14;6.90;;;4.38;;
51122;SDS011;37162;41.724;13.346;2023-07-08T12:11:57;6.32;;;4.63;;
51122;SDS011;37162;41.724;13.346;2023-07-08T12:14:25;5.35;;;4.32;;
51122;SDS011;37162;41.724;13.346;2023-07-08T12:16:53;11.07;;;4.82;;
51122;SDS011;37162;41.724;13.346;2023-07-08T12:19:20;6.30;;;3.97;;
51122;SDS011;37162;41.724;13.346;2023-07-08T12:21:50;5.10;;;3.72;;
51122;SDS011;37162;41.724;13.346;2023-07-08T12:24:16;6.93;;;4.43;;
51122;SDS011;37162;41.724;13.346;2023-07-08T12:26:43;5.43;;;4.47;;
51122;SDS011;37162;41.724;13.346;2023-07-08T12:29:12;4.80;;;3.70;;
51122;SDS011;37162;41.724;13.346;2023-07-08T12:31:39;6.13;;;4.45;;
51122;SDS011;37162;41.724;13.346;2023-07-08T12:34:11;6.72;;;3.85;;
51122;SDS011;37162;41.724;13.346;2023-07-08T12:36:40;5.75;;;3.70;;
51122;SDS011;37162;41.724;13.346;2023-07-08T12:39:08;5.22;;;4.35;;
51122;SDS011;37162;41.724;13.346;2023-07-08T12:41:37;5.22;;;4.22;;
51122;SDS011;37162;41.724;13.346;2023-07-08T12:44:04;7.07;;;4.78;;
51122;SDS011;37162;41.724;13.346;2023-07-08T12:46:39;6.75;;;4.38;;
51122;SDS011;37162;41.724;13.346;2023-07-08T12:49:04;6.25;;;3.85;;
51122;SDS011;37162;41.724;13.346;2023-07-08T12:51:30;5.22;;;3.85;;
51122;SDS011;37162;41.724;13.346;2023-07-08T12:53:56;6.78;;;4.10;;
51122;SDS011;37162;41.724;13.346;2023-07-08T12:56:22;4.68;;;3.40;;
51122;SDS011;37162;41.724;13.346;2023-07-08T12:58:49;7.00;;;4.25;;
51122;SDS011;37162;41.724;13.346;2023-07-08T13:01:22;7.47;;;4.63;;
51122;SDS011;37162;41.724;13.346;2023-07-08T13:03:51;5.22;;;3.72;;
51122;SDS011;37162;41.724;13.346;2023-07-08T13:06:20;6.82;;;4.05;;
51122;SDS011;37162;41.724;13.346;2023-07-08T13:08:48;6.93;;;3.88;;
51122;SDS011;37162;41.724;13.346;2023-07-08T13:11:15;8.05;;;3.95;;
51122;SDS011;37162;41.724;13.346;2023-07-08T13:13:51;5.85;;;3.80;;
51122;SDS011;37162;41.724;13.346;2023-07-08T13:16:28;5.05;;;4.03;;
51122;SDS011;37162;41.724;13.346;2023-07-08T13:18:56;5.95;;;4.30;;
51122;SDS011;37162;41.724;13.346;2023-07-08T13:21:22;5.80;;;4.22;;
51122;SDS011;37162;41.724;13.346;2023-07-08T13:23:49;5.75;;;3.88;;
51122;SDS011;37162;41.724;13.346;2023-07-08T13:26:19;5.78;;;3.78;;
51122;SDS011;37162;41.724;13.346;2023-07-08T13:28:47;5.20;;;4.00;;
51122;SDS011;37162;41.724;13.346;2023-07-08T13:33:50;4.40;;;3.45;;
51122;SDS011;37162;41.724;13.346;2023-07-08T13:36:23;5.93;;;4.15;;
51122;SDS011;37162;41.724;13.346;2023-07-08T13:38:54;7.43;;;4.03;;
51122;SDS011;37162;41.724;13.346;2023-07-08T13:41:20;4.63;;;3.80;;
51122;SDS011;37162;41.724;13.346;2023-07-08T13:43:47;4.53;;;3.67;;
51122;SDS011;37162;41.724;13.346;2023-07-08T13:46:30;7.00;;;4.22;;
51122;SDS011;37162;41.724;13.346;2023-07-08T13:49:09;5.50;;;3.90;;
51122;SDS011;37162;41.724;13.346;2023-07-08T13:51:37;4.82;;;3.53;;
51122;SDS011;37162;41.724;13.346;2023-07-08T13:54:13;7.03;;;4.20;;
51122;SDS011;37162;41.724;13.346;2023-07-08T13:56:43;6.43;;;3.92;;
51122;SDS011;37162;41.724;13.346;2023-07-08T13:59:16;5.35;;;3.70;;
51122;SDS011;37162;41.724;13.346;2023-07-08T14:01:44;7.85;;;3.95;;
51122;SDS011;37162;41.724;13.346;2023-07-08T14:04:13;4.57;;;3.85;;
51122;SDS011;37162;41.724;13.346;2023-07-08T14:06:42;6.47;;;3.97;;
51122;SDS011;37162;41.724;13.346;2023-07-08T14:11:41;7.88;;;3.55;;
51122;SDS011;37162;41.724;13.346;2023-07-08T14:14:07;5.97;;;4.00;;
51122;SDS011;37162;41.724;13.346;2023-07-08T14:16:34;4.85;;;4.03;;
51122;SDS011;37162;41.724;13.346;2023-07-08T14:19:05;6.68;;;4.53;;
51122;SDS011;37162;41.724;13.346;2023-07-08T14:21:33;6.18;;;3.95;;
51122;SDS011;37162;41.724;13.346;2023-07-08T14:23:59;5.55;;;3.85;;
51122;SDS011;37162;41.724;13.346;2023-07-08T14:26:25;4.55;;;3.47;;
51122;SDS011;37162;41.724;13.346;2023-07-08T14:28:50;5.70;;;3.75;;
51122;SDS011;37162;41.724;13.346;2023-07-08T14:31:18;5.28;;;3.75;;
51122;SDS011;37162;41.724;13.346;2023-07-08T14:33:46;5.70;;;3.90;;
51122;SDS011;37162;41.724;13.346;2023-07-08T14:36:12;5.13;;;3.42;;
51122;SDS011;37162;41.724;13.346;2023-07-08T14:38:40;5.38;;;4.15;;
51122;SDS011;37162;41.724;13.346;2023-07-08T14:41:05;8.68;;;4.40;;
51122;SDS011;37162;41.724;13.346;2023-07-08T14:43:32;5.65;;;3.50;;
51122;SDS011;37162;41.724;13.346;2023-07-08T14:46:00;5.90;;;3.65;;
51122;SDS011;37162;41.724;13.346;2023-07-08T14:48:28;6.38;;;3.97;;
51122;SDS011;37162;41.724;13.346;2023-07-08T14:50:55;5.78;;;4.30;;
51122;SDS011;37162;41.724;13.346;2023-07-08T14:53:21;6.72;;;4.65;;
51122;SDS011;37162;41.724;13.346;2023-07-08T14:55:47;6.93;;;4.07;;
51122;SDS011;37162;41.724;13.346;2023-07-08T14:58:37;4.80;;;3.75;;
51122;SDS011;37162;41.724;13.346;2023-07-08T15:01:07;8.85;;;4.15;;
51122;SDS011;37162;41.724;13.346;2023-07-08T15:03:40;10.07;;;3.53;;
51122;SDS011;37162;41.724;13.346;2023-07-08T15:06:08;8.48;;;3.75;;
51122;SDS011;37162;41.724;13.346;2023-07-08T15:08:35;8.13;;;4.43;;
51122;SDS011;37162;41.724;13.346;2023-07-08T15:11:01;5.93;;;4.00;;
51122;SDS011;37162;41.724;13.346;2023-07-08T15:13:30;5.95;;;4.18;;
51122;SDS011;37162;41.724;13.346;2023-07-08T15:15:57;6.32;;;3.75;;
51122;SDS011;37162;41.724;13.346;2023-07-08T15:18:22;6.10;;;3.65;;
51122;SDS011;37162;41.724;13.346;2023-07-08T15:20:48;7.43;;;4.35;;
51122;SDS011;37162;41.724;13.346;2023-07-08T15:23:14;7.03;;;4.40;;
51122;SDS011;37162;41.724;13.346;2023-07-08T15:25:43;6.38;;;4.00;;
51122;SDS011;37162;41.724;13.346;2023-07-08T15:28:14;5.40;;;3.87;;
51122;SDS011;37162;41.724;13.346;2023-07-08T15:30:49;6.75;;;3.90;;
51122;SDS011;37162;41.724;13.346;2023-07-08T15:33:15;10.98;;;4.90;;
51122;SDS011;37162;41.724;13.346;2023-07-08T15:35:41;6.80;;;3.97;;
51122;SDS011;37162;41.724;13.346;2023-07-08T15:38:08;9.32;;;4.47;;
51122;SDS011;37162;41.724;13.346;2023-07-08T15:40:34;7.28;;;4.95;;
51122;SDS011;37162;41.724;13.346;2023-07-08T15:43:00;6.70;;;4.10;;
51122;SDS011;37162;41.724;13.346;2023-07-08T15:45:32;7.70;;;4.13;;
51122;SDS011;37162;41.724;13.346;2023-07-08T15:48:02;6.50;;;4.15;;
51122;SDS011;37162;41.724;13.346;2023-07-08T15:50:28;13.07;;;4.63;;
51122;SDS011;37162;41.724;13.346;2023-07-08T15:52:55;8.90;;;4.85;;
51122;SDS011;37162;41.724;13.346;2023-07-08T15:55:25;9.68;;;5.22;;